createdAt,value
2018-06-25T00:01:46.272Z,6.63
2018-06-25T00:04:14.537Z,8.20
2018-06-25T00:06:42.842Z,7.47
2018-06-25T00:09:11.565Z,5.83
2018-06-25T00:11:40.069Z,7.30
2018-06-25T00:14:08.317Z,6.13
2018-06-25T00:16:36.677Z,5.87
2018-06-25T00:19:05.013Z,5.83
2018-06-25T00:21:33.284Z,5.27
2018-06-25T00:24:01.566Z,4.70
2018-06-25T00:26:29.836Z,8.17
2018-06-25T00:28:58.113Z,6.50
2018-06-25T00:31:26.365Z,5.00
2018-06-25T00:33:54.649Z,4.80
2018-06-25T00:36:23.125Z,5.73
2018-06-25T00:38:51.401Z,6.13
2018-06-25T00:41:19.724Z,5.30
2018-06-25T00:43:47.987Z,7.00
2018-06-25T00:46:16.233Z,6.20
2018-06-25T00:48:44.577Z,5.57
2018-06-25T00:51:12.870Z,5.97
2018-06-25T00:53:41.241Z,7.23
2018-06-25T00:56:09.590Z,6.57
2018-06-25T00:58:49.146Z,6.23
2018-06-25T01:01:17.423Z,5.70
2018-06-25T01:03:45.733Z,5.20
2018-06-25T01:06:14.110Z,5.80
2018-06-25T01:08:42.389Z,5.50
2018-06-25T01:11:10.682Z,5.03
2018-06-25T01:13:38.936Z,4.70
2018-06-25T01:16:07.253Z,6.10
2018-06-25T01:18:35.504Z,5.93
2018-06-25T01:21:03.821Z,6.00
2018-06-25T01:23:32.069Z,6.67
2018-06-25T01:26:00.369Z,7.13
2018-06-25T01:28:28.644Z,6.53
2018-06-25T01:30:56.929Z,6.10
2018-06-25T01:33:25.178Z,6.73
2018-06-25T01:35:53.508Z,5.97
2018-06-25T01:38:21.760Z,6.60
2018-06-25T01:40:50.034Z,5.77
2018-06-25T01:43:18.330Z,5.40
2018-06-25T01:45:46.613Z,5.33
2018-06-25T01:48:14.864Z,5.80
2018-06-25T01:50:43.160Z,6.10
2018-06-25T01:53:11.572Z,5.67
2018-06-25T01:55:39.861Z,6.37
2018-06-25T01:58:08.121Z,5.07
2018-06-25T02:00:36.453Z,6.67
2018-06-25T02:03:04.729Z,6.50
2018-06-25T02:05:32.996Z,6.83
2018-06-25T02:08:01.297Z,8.33
2018-06-25T02:10:29.556Z,7.77
2018-06-25T02:12:58.110Z,7.50
2018-06-25T02:15:26.369Z,6.70
2018-06-25T02:17:54.774Z,6.67
2018-06-25T02:20:23.041Z,5.30
2018-06-25T02:22:51.361Z,6.67
2018-06-25T02:25:19.625Z,5.30
2018-06-25T02:27:47.921Z,5.27
2018-06-25T02:30:16.193Z,6.93
2018-06-25T02:32:44.491Z,5.90
2018-06-25T02:35:12.788Z,5.90
2018-06-25T02:37:41.113Z,6.73
2018-06-25T02:40:09.419Z,7.97
2018-06-25T02:42:37.719Z,6.60
2018-06-25T02:45:06.197Z,6.40
2018-06-25T02:47:34.508Z,6.07
2018-06-25T02:50:02.836Z,8.57
2018-06-25T02:52:31.144Z,7.07
2018-06-25T02:54:59.548Z,7.07
2018-06-25T02:57:27.809Z,7.20
2018-06-25T02:59:56.107Z,6.80
2018-06-25T03:02:24.371Z,8.43
2018-06-25T03:04:52.671Z,7.17
2018-06-25T03:07:21.129Z,7.13
2018-06-25T03:09:49.447Z,8.13
2018-06-25T03:12:17.725Z,6.90
2018-06-25T03:14:46.098Z,7.80
2018-06-25T03:17:14.465Z,7.80
2018-06-25T03:19:42.770Z,7.00
2018-06-25T03:22:11.070Z,7.53
2018-06-25T03:24:39.370Z,7.80
2018-06-25T03:27:07.653Z,7.67
2018-06-25T03:29:35.975Z,7.50
2018-06-25T03:32:04.270Z,7.40
2018-06-25T03:34:32.589Z,6.40
2018-06-25T03:37:00.855Z,7.37
2018-06-25T03:39:29.169Z,6.63
2018-06-25T03:41:57.445Z,6.40
2018-06-25T03:44:25.846Z,6.73
2018-06-25T03:46:54.134Z,6.40
2018-06-25T03:49:22.468Z,7.20
2018-06-25T03:51:50.736Z,5.77
2018-06-25T03:54:19.065Z,7.67
2018-06-25T03:56:47.341Z,6.70
2018-06-25T03:59:15.667Z,7.27
2018-06-25T04:01:43.966Z,8.20
2018-06-25T04:04:12.240Z,6.27
2018-06-25T04:06:40.533Z,7.63
2018-06-25T04:09:10.553Z,6.60
2018-06-25T04:11:39.149Z,7.13
2018-06-25T04:14:07.502Z,5.90
2018-06-25T04:16:35.809Z,5.20
2018-06-25T04:19:06.041Z,6.17
2018-06-25T04:21:37.523Z,7.27
2018-06-25T04:24:06.123Z,7.47
2018-06-25T04:26:34.641Z,7.17
2018-06-25T04:29:03.305Z,7.07
2018-06-25T04:31:31.609Z,6.57
2018-06-25T04:34:00.058Z,5.87
2018-06-25T04:36:28.565Z,6.80
2018-06-25T04:38:56.839Z,5.50
2018-06-25T04:41:25.185Z,6.93
2018-06-25T04:43:53.539Z,5.63
2018-06-25T04:46:21.789Z,5.03
2018-06-25T04:48:50.101Z,5.17
2018-06-25T04:51:18.471Z,6.33
2018-06-25T04:53:46.896Z,5.70
2018-06-25T04:56:15.166Z,4.87
2018-06-25T04:58:43.449Z,5.50
2018-06-25T05:01:11.767Z,7.30
2018-06-25T05:03:40.045Z,7.30
2018-06-25T05:06:08.296Z,5.97
2018-06-25T05:08:36.597Z,5.83
2018-06-25T05:11:04.861Z,7.30
2018-06-25T05:13:33.186Z,5.70
2018-06-25T05:16:01.470Z,5.60
2018-06-25T05:18:29.828Z,7.20
2018-06-25T05:20:58.069Z,6.17
2018-06-25T05:23:26.352Z,7.60
2018-06-25T05:25:54.782Z,6.97
2018-06-25T05:28:23.137Z,6.40
2018-06-25T05:30:51.415Z,5.67
2018-06-25T05:33:19.812Z,6.07
2018-06-25T05:35:48.097Z,6.13
2018-06-25T05:38:16.433Z,7.70
2018-06-25T05:40:44.829Z,6.00
2018-06-25T05:43:13.084Z,5.37
2018-06-25T05:45:41.385Z,7.53
2018-06-25T05:48:09.738Z,6.43
2018-06-25T05:50:38.041Z,5.47
2018-06-25T05:53:06.290Z,5.87
2018-06-25T05:55:34.569Z,5.30
2018-06-25T05:58:02.825Z,6.37
2018-06-25T06:00:31.121Z,7.03
2018-06-25T06:02:59.497Z,7.60
2018-06-25T06:05:27.769Z,7.30
2018-06-25T06:07:56.030Z,5.60
2018-06-25T06:10:24.309Z,5.57
2018-06-25T06:12:52.574Z,6.23
2018-06-25T06:15:20.866Z,6.80
2018-06-25T06:17:49.139Z,5.77
2018-06-25T06:20:17.421Z,5.90
2018-06-25T06:22:45.697Z,6.10
2018-06-25T06:25:14.019Z,6.67
2018-06-25T06:27:42.913Z,6.07
2018-06-25T06:30:11.223Z,6.00
2018-06-25T06:32:39.470Z,6.60
2018-06-25T06:35:07.760Z,6.70
2018-06-25T06:37:36.117Z,7.30
2018-06-25T06:40:04.476Z,8.17
2018-06-25T06:42:32.861Z,7.20
2018-06-25T06:45:01.125Z,6.67
2018-06-25T06:47:29.433Z,6.93
2018-06-25T06:49:57.716Z,8.80
2018-06-25T06:52:26.003Z,7.67
2018-06-25T06:54:54.273Z,7.13
2018-06-25T06:57:22.555Z,8.63
2018-06-25T06:59:50.805Z,8.10
2018-06-25T07:02:19.133Z,7.17
2018-06-25T07:04:47.475Z,7.70
2018-06-25T07:07:15.750Z,8.70
2018-06-25T07:09:44.025Z,8.50
2018-06-25T07:12:12.341Z,8.93
2018-06-25T07:14:40.585Z,7.30
2018-06-25T07:17:08.833Z,9.33
2018-06-25T07:19:37.109Z,7.03
2018-06-25T07:22:05.369Z,9.03
2018-06-25T07:24:33.653Z,7.27
2018-06-25T07:27:02.007Z,7.60
2018-06-25T07:29:30.293Z,8.27
2018-06-25T07:31:58.741Z,8.13
2018-06-25T07:35:30.221Z,8.20
2018-06-25T07:37:58.504Z,7.23
2018-06-25T07:40:26.783Z,7.60
2018-06-25T07:42:55.066Z,7.43
2018-06-25T07:45:23.421Z,8.10
2018-06-25T07:47:51.702Z,7.70
2018-06-25T07:50:20.041Z,9.10
2018-06-25T07:52:48.567Z,11.57
2018-06-25T07:55:16.858Z,9.70
2018-06-25T07:57:45.125Z,8.20
2018-06-25T08:00:13.495Z,8.03
2018-06-25T08:02:41.750Z,9.87
2018-06-25T08:05:10.441Z,10.07
2018-06-25T08:07:38.748Z,10.07
2018-06-25T08:10:07.183Z,9.33
2018-06-25T08:12:35.466Z,10.50
2018-06-25T08:15:03.867Z,9.13
2018-06-25T08:17:32.129Z,8.93
2018-06-25T08:20:00.453Z,9.20
2018-06-25T08:22:28.730Z,8.93
2018-06-25T08:24:57.022Z,9.20
2018-06-25T08:27:25.396Z,10.20
2018-06-25T08:29:53.746Z,9.70
2018-06-25T08:32:22.226Z,8.30
2018-06-25T08:34:50.486Z,8.30
2018-06-25T08:37:18.788Z,8.00
2018-06-25T08:39:47.041Z,8.97
2018-06-25T08:42:15.379Z,9.10
2018-06-25T08:44:43.609Z,7.93
2018-06-25T08:47:11.897Z,9.03
2018-06-25T08:49:40.190Z,8.57
2018-06-25T08:52:08.499Z,10.40
2018-06-25T08:54:37.045Z,11.83
2018-06-25T08:57:05.380Z,10.50
2018-06-25T08:59:33.657Z,9.90
2018-06-25T09:02:01.944Z,8.00
2018-06-25T09:04:30.395Z,11.20
2018-06-25T09:06:58.818Z,8.50
2018-06-25T09:09:27.662Z,10.20
2018-06-25T09:11:56.009Z,10.23
2018-06-25T09:14:24.277Z,8.40
2018-06-25T09:16:52.585Z,8.77
2018-06-25T09:19:20.857Z,7.63
2018-06-25T09:21:49.185Z,8.00
2018-06-25T09:24:17.464Z,7.40
2018-06-25T09:26:45.745Z,8.03
2018-06-25T09:29:14.218Z,7.90
2018-06-25T09:31:42.493Z,8.20
2018-06-25T09:34:16.097Z,8.50
2018-06-25T09:36:44.554Z,8.47
2018-06-25T09:39:13.308Z,9.57
2018-06-25T09:41:41.701Z,7.73
2018-06-25T09:44:10.973Z,8.50
2018-06-25T09:46:39.429Z,7.90
2018-06-25T09:49:09.053Z,8.57
2018-06-25T09:51:37.313Z,8.67
2018-06-25T09:54:05.675Z,8.00
2018-06-25T09:56:33.951Z,9.17
2018-06-25T09:59:02.258Z,8.10
2018-06-25T10:01:30.554Z,8.80
2018-06-25T10:03:58.863Z,8.43
2018-06-25T10:06:27.159Z,8.13
2018-06-25T10:08:55.441Z,7.80
2018-06-25T10:11:23.709Z,7.17
2018-06-25T10:13:51.997Z,6.90
2018-06-25T10:16:20.289Z,8.73
2018-06-25T10:18:48.590Z,8.17
2018-06-25T10:21:16.883Z,7.63
2018-06-25T10:23:45.142Z,8.37
2018-06-25T10:26:13.419Z,7.80
2018-06-25T10:28:41.731Z,7.97
2018-06-25T10:31:10.373Z,7.33
2018-06-25T10:33:38.640Z,7.20
2018-06-25T10:36:06.979Z,8.90
2018-06-25T10:38:35.346Z,7.97
2018-06-25T10:41:03.657Z,8.03
2018-06-25T10:43:31.927Z,7.97
2018-06-25T10:46:00.261Z,7.60
2018-06-25T10:48:28.545Z,7.10
2018-06-25T10:50:56.873Z,7.13
2018-06-25T10:53:25.134Z,8.50
2018-06-25T10:55:53.492Z,7.80
2018-06-25T10:58:21.745Z,6.90
2018-06-25T11:00:50.042Z,7.90
2018-06-25T11:03:18.289Z,8.43
2018-06-25T11:05:46.580Z,9.00
2018-06-25T11:08:14.836Z,7.70
2018-06-25T11:10:43.142Z,7.30
2018-06-25T11:13:11.410Z,8.93
2018-06-25T11:15:39.713Z,8.03
2018-06-25T11:18:08.012Z,7.60
2018-06-25T11:20:36.349Z,8.73
2018-06-25T11:23:04.610Z,7.60
2018-06-25T11:25:32.909Z,7.37
2018-06-25T11:28:01.190Z,8.03
2018-06-25T11:30:29.493Z,7.87
2018-06-25T11:32:57.788Z,7.90
2018-06-25T11:35:32.529Z,8.03
2018-06-25T11:38:00.828Z,7.87
2018-06-25T11:40:29.106Z,7.20
2018-06-25T11:42:57.411Z,8.63
2018-06-25T11:45:25.678Z,7.77
2018-06-25T11:47:53.972Z,8.70
2018-06-25T11:50:22.304Z,9.00
2018-06-25T11:52:50.605Z,7.87
2018-06-25T11:55:18.865Z,6.53
2018-06-25T11:57:47.140Z,8.70
2018-06-25T12:00:15.441Z,6.50
2018-06-25T12:02:43.906Z,7.33
2018-06-25T12:05:12.025Z,8.53
2018-06-25T12:07:40.309Z,7.53
2018-06-25T12:10:08.585Z,7.20
2018-06-25T12:12:37.057Z,8.53
2018-06-25T12:15:05.478Z,7.90
2018-06-25T12:17:33.771Z,6.90
2018-06-25T12:20:02.141Z,7.13
2018-06-25T12:22:30.377Z,7.17
2018-06-25T12:24:58.657Z,7.33
2018-06-25T12:27:26.924Z,6.50
2018-06-25T12:29:55.211Z,6.70
2018-06-25T12:32:23.480Z,6.70
2018-06-25T12:34:51.761Z,7.00
2018-06-25T12:37:20.023Z,6.87
2018-06-25T12:39:48.317Z,6.90
2018-06-25T12:42:16.625Z,6.67
2018-06-25T12:44:44.935Z,7.23
2018-06-25T12:47:13.186Z,6.57
2018-06-25T12:49:41.534Z,5.90
2018-06-25T12:52:09.790Z,7.43
2018-06-25T12:54:38.074Z,7.33
2018-06-25T12:57:06.442Z,7.80
2018-06-25T12:59:34.734Z,6.53
2018-06-25T13:02:03.041Z,7.47
2018-06-25T13:04:31.324Z,5.67
2018-06-25T13:06:59.954Z,7.27
2018-06-25T13:09:28.224Z,6.43
2018-06-25T13:11:56.557Z,7.23
2018-06-25T13:14:24.830Z,6.40
2018-06-25T13:16:53.532Z,6.47
2018-06-25T13:19:21.825Z,7.17
2018-06-25T13:21:50.129Z,6.93
2018-06-25T13:24:18.422Z,6.17
2018-06-25T13:26:46.749Z,6.53
2018-06-25T13:29:15.015Z,6.80
2018-06-25T13:31:43.312Z,7.13
2018-06-25T13:34:11.577Z,6.20
2018-06-25T13:36:39.866Z,6.40
2018-06-25T13:39:08.961Z,5.70
2018-06-25T13:41:37.273Z,5.80
2018-06-25T13:44:05.808Z,6.23
2018-06-25T13:46:34.375Z,5.93
2018-06-25T13:49:02.765Z,6.17
2018-06-25T13:51:31.138Z,6.20
2018-06-25T13:53:59.513Z,6.50
2018-06-25T13:56:27.930Z,5.37
2018-06-25T13:58:56.209Z,6.37
2018-06-25T14:01:24.498Z,6.37
2018-06-25T14:03:52.785Z,5.40
2018-06-25T14:06:21.078Z,6.43
2018-06-25T14:08:49.349Z,7.20
2018-06-25T14:11:17.657Z,5.57
2018-06-25T14:13:45.965Z,5.80
2018-06-25T14:16:14.265Z,6.80
2018-06-25T14:18:42.673Z,6.50
2018-06-25T14:21:10.948Z,6.47
2018-06-25T14:23:43.433Z,7.10
2018-06-25T14:26:11.929Z,5.57
2018-06-25T14:28:40.263Z,5.93
2018-06-25T14:31:13.992Z,5.80
2018-06-25T14:33:43.612Z,5.60
2018-06-25T14:36:11.926Z,5.80
2018-06-25T14:38:40.224Z,4.90
2018-06-25T14:41:08.510Z,4.83
2018-06-25T14:43:36.809Z,6.70
2018-06-25T14:46:05.601Z,5.00
2018-06-25T14:48:33.965Z,5.17
2018-06-25T14:51:02.904Z,4.77
2018-06-25T14:53:31.220Z,5.23
2018-06-25T14:55:59.594Z,5.23
2018-06-25T14:58:27.877Z,5.33
2018-06-25T15:00:56.229Z,5.63
2018-06-25T15:03:24.489Z,5.63
2018-06-25T15:05:52.929Z,5.30
2018-06-25T15:08:21.205Z,5.90
2018-06-25T15:10:49.585Z,6.80
2018-06-25T15:13:17.906Z,5.63
2018-06-25T15:15:46.161Z,5.70
2018-06-25T15:18:14.613Z,5.80
2018-06-25T15:20:42.909Z,6.27
2018-06-25T15:23:11.237Z,5.30
2018-06-25T15:25:39.593Z,5.93
2018-06-25T15:28:07.869Z,5.73
2018-06-25T15:30:36.146Z,5.47
2018-06-25T15:33:04.470Z,5.07
2018-06-25T15:35:32.760Z,4.40
2018-06-25T15:38:01.043Z,5.67
2018-06-25T15:40:29.367Z,4.90
2018-06-25T15:42:57.637Z,6.10
2018-06-25T15:45:25.941Z,5.27
2018-06-25T15:47:54.275Z,4.20
2018-06-25T15:50:22.588Z,4.90
2018-06-25T15:52:50.881Z,4.00
2018-06-25T15:55:19.189Z,3.93
2018-06-25T15:57:47.494Z,4.67
2018-06-25T16:00:15.809Z,4.93
2018-06-25T16:02:45.113Z,6.10
2018-06-25T16:05:13.473Z,5.33
2018-06-25T16:07:42.380Z,4.40
2018-06-25T16:10:10.885Z,4.70
2018-06-25T16:12:39.185Z,6.07
2018-06-25T16:15:07.517Z,5.73
2018-06-25T16:17:35.809Z,5.17
2018-06-25T16:20:04.234Z,5.60
2018-06-25T16:22:32.539Z,4.93
2018-06-25T16:25:00.809Z,5.50
2018-06-25T16:27:29.121Z,4.73
2018-06-25T16:29:57.438Z,5.40
2018-06-25T16:32:25.913Z,5.97
2018-06-25T16:34:54.175Z,4.50
2018-06-25T16:37:22.521Z,5.78
2018-06-25T16:39:50.846Z,5.90
2018-06-25T16:42:19.120Z,6.20
2018-06-25T16:44:47.405Z,6.13
2018-06-25T16:47:15.762Z,6.47
2018-06-25T16:49:44.104Z,6.47
2018-06-25T16:52:12.446Z,5.13
2018-06-25T16:54:40.778Z,6.40
2018-06-25T16:57:09.159Z,5.00
2018-06-25T16:59:37.462Z,6.87
2018-06-25T17:02:05.773Z,6.00
2018-06-25T17:04:34.085Z,5.90
2018-06-25T17:07:02.495Z,6.03
2018-06-25T17:09:30.804Z,6.17
2018-06-25T17:11:59.088Z,5.80
2018-06-25T17:14:27.393Z,5.60
2018-06-25T17:16:55.869Z,6.17
2018-06-25T17:19:24.177Z,5.87
2018-06-25T17:21:52.441Z,6.23
2018-06-25T17:24:20.769Z,5.47
2018-06-25T17:26:49.037Z,5.50
2018-06-25T17:29:17.354Z,4.50
2018-06-25T17:31:45.653Z,4.83
2018-06-25T17:34:13.905Z,5.77
2018-06-25T17:36:42.185Z,5.00
2018-06-25T17:39:10.470Z,5.20
2018-06-25T17:41:38.753Z,5.97
2018-06-25T17:44:07.010Z,6.60
2018-06-25T17:46:35.308Z,5.87
2018-06-25T17:49:03.609Z,5.30
2018-06-25T17:51:31.946Z,6.23
2018-06-25T17:54:00.221Z,5.23
2018-06-25T17:56:28.531Z,5.63
2018-06-25T17:58:56.863Z,5.30
2018-06-25T18:01:25.173Z,6.27
2018-06-25T18:03:53.444Z,7.17
2018-06-25T18:06:21.786Z,6.40
2018-06-25T18:08:50.057Z,5.90
2018-06-25T18:11:18.364Z,5.43
2018-06-25T18:13:46.625Z,5.50
2018-06-25T18:16:14.929Z,6.30
2018-06-25T18:18:43.197Z,5.23
2018-06-25T18:21:11.473Z,4.87
2018-06-25T18:23:39.807Z,5.20
2018-06-25T18:26:08.081Z,5.27
2018-06-25T18:28:36.389Z,6.60
2018-06-25T18:31:04.667Z,6.27
2018-06-25T18:33:32.984Z,5.57
2018-06-25T18:36:01.250Z,5.47
2018-06-25T18:38:29.702Z,5.17
2018-06-25T18:40:58.365Z,4.90
2018-06-25T18:43:26.665Z,4.40
2018-06-25T18:45:54.980Z,5.17
2018-06-25T18:48:23.427Z,5.00
2018-06-25T18:50:51.736Z,5.10
2018-06-25T18:53:20.024Z,5.30
2018-06-25T18:55:48.537Z,4.43
2018-06-25T18:58:16.858Z,6.37
2018-06-25T19:00:45.301Z,5.77
2018-06-25T19:03:13.640Z,6.40
2018-06-25T19:05:41.943Z,6.07
2018-06-25T19:08:10.185Z,5.33
2018-06-25T19:10:38.473Z,5.57
2018-06-25T19:13:06.816Z,4.27
2018-06-25T19:15:35.245Z,5.37
2018-06-25T19:18:03.746Z,4.80
2018-06-25T19:20:32.041Z,4.83
2018-06-25T19:23:00.306Z,5.17
2018-06-25T19:25:28.613Z,4.30
2018-06-25T19:27:57.057Z,4.57
2018-06-25T19:30:25.397Z,4.20
2018-06-25T19:32:53.671Z,5.07
2018-06-25T19:35:21.949Z,5.13
2018-06-25T19:37:50.220Z,5.17
2018-06-25T19:40:18.574Z,6.00
2018-06-25T19:42:47.126Z,5.27
2018-06-25T19:45:15.441Z,4.37
2018-06-25T19:47:43.701Z,5.47
2018-06-25T19:50:12.013Z,5.63
2018-06-25T19:52:40.284Z,6.20
2018-06-25T19:55:08.574Z,5.30
2018-06-25T19:57:36.829Z,6.30
2018-06-25T20:00:05.292Z,6.17
2018-06-25T20:02:33.607Z,6.23
2018-06-25T20:05:01.910Z,6.60
2018-06-25T20:07:30.196Z,6.37
2018-06-25T20:09:58.483Z,6.90
2018-06-25T20:12:26.847Z,6.23
2018-06-25T20:14:55.070Z,6.43
2018-06-25T20:17:23.408Z,6.03
2018-06-25T20:19:51.735Z,6.37
2018-06-25T20:22:20.020Z,7.90
2018-06-25T20:24:48.289Z,5.90
2018-06-25T20:27:16.572Z,7.33
2018-06-25T20:29:44.830Z,6.60
2018-06-25T20:32:13.133Z,7.17
2018-06-25T20:34:41.443Z,6.00
2018-06-25T20:37:09.741Z,6.53
2018-06-25T20:39:37.997Z,6.80
2018-06-25T20:42:06.341Z,5.87
2018-06-25T20:44:34.629Z,6.43
2018-06-25T20:47:03.119Z,6.40
2018-06-25T20:49:31.231Z,5.93
2018-06-25T20:51:59.529Z,5.40
2018-06-25T20:54:27.788Z,6.70
2018-06-25T20:56:56.270Z,6.03
2018-06-25T20:59:24.467Z,6.63
2018-06-25T21:01:53.046Z,7.43
2018-06-25T21:04:21.388Z,7.37
2018-06-25T21:06:49.713Z,9.30
2018-06-25T21:09:18.082Z,7.20
2018-06-25T21:11:46.359Z,7.40
2018-06-25T21:14:14.646Z,7.03
2018-06-25T21:16:42.988Z,7.93
2018-06-25T21:19:11.229Z,8.00
2018-06-25T21:21:39.657Z,7.77
2018-06-25T21:24:07.953Z,8.00
2018-06-25T21:26:36.661Z,7.80
2018-06-25T21:29:05.460Z,7.23
2018-06-25T21:31:33.716Z,7.43
2018-06-25T21:34:02.010Z,8.10
2018-06-25T21:36:30.336Z,8.33
2018-06-25T21:38:58.647Z,8.10
2018-06-25T21:41:26.905Z,7.80
2018-06-25T21:43:55.181Z,8.53
2018-06-25T21:46:23.437Z,8.17
2018-06-25T21:48:51.722Z,8.30
2018-06-25T21:51:20.117Z,7.70
2018-06-25T21:53:48.406Z,6.57
2018-06-25T21:56:16.662Z,8.10
2018-06-25T21:58:44.977Z,9.80
2018-06-25T22:01:13.281Z,8.70
2018-06-25T22:03:41.904Z,7.30
2018-06-25T22:06:10.257Z,7.07
2018-06-25T22:08:38.530Z,6.70
2018-06-25T22:11:06.834Z,7.77
2018-06-25T22:13:35.135Z,7.83
2018-06-25T22:16:03.421Z,7.30
2018-06-25T22:18:31.688Z,7.83
2018-06-25T22:20:59.977Z,7.33
2018-06-25T22:23:28.248Z,7.70
2018-06-25T22:25:56.557Z,6.57
2018-06-25T22:28:24.821Z,7.20
2018-06-25T22:30:53.149Z,6.63
2018-06-25T22:33:21.397Z,6.70
2018-06-25T22:35:49.705Z,5.60
2018-06-25T22:38:17.971Z,6.00
2018-06-25T22:40:46.353Z,5.67
2018-06-25T22:43:14.621Z,6.03
2018-06-25T22:45:42.930Z,8.20
2018-06-25T22:48:11.201Z,6.80
2018-06-25T22:50:39.613Z,6.67
2018-06-25T22:53:07.872Z,8.23
2018-06-25T22:55:37.049Z,6.50
2018-06-25T22:58:05.356Z,7.73
2018-06-25T23:00:34.116Z,7.20
2018-06-25T23:03:02.481Z,7.40
2018-06-25T23:05:30.750Z,8.07
2018-06-25T23:07:59.038Z,8.90
2018-06-25T23:10:27.313Z,7.30
2018-06-25T23:12:55.847Z,6.70
2018-06-25T23:15:24.350Z,7.57
2018-06-25T23:17:52.863Z,7.97
2018-06-25T23:20:21.129Z,9.27
2018-06-25T23:22:53.430Z,7.23
2018-06-25T23:25:21.753Z,7.40
2018-06-25T23:27:50.401Z,7.90
2018-06-25T23:30:18.686Z,10.05
2018-06-25T23:32:47.258Z,9.50
2018-06-25T23:35:15.813Z,8.77
2018-06-25T23:37:44.093Z,8.40
2018-06-25T23:40:12.369Z,8.00
2018-06-25T23:42:40.681Z,10.27
2018-06-25T23:45:09.093Z,7.43
2018-06-25T23:47:37.349Z,7.90
2018-06-25T23:50:05.805Z,6.90
2018-06-25T23:52:34.153Z,6.80
2018-06-25T23:55:02.601Z,7.60
2018-06-25T23:57:30.885Z,7.47
2018-06-25T23:59:59.160Z,8.77
